createdAt,value
2019-02-27T00:01:49.645Z,8.18
2019-02-27T00:04:12.950Z,8.04
2019-02-27T00:06:37.368Z,7.76
2019-02-27T00:09:01.833Z,7.83
2019-02-27T00:11:26.233Z,7.52
2019-02-27T00:13:50.745Z,7.54
2019-02-27T00:16:15.234Z,7.55
2019-02-27T00:18:39.817Z,7.50
2019-02-27T00:21:04.226Z,7.66
2019-02-27T00:23:28.695Z,7.71
2019-02-27T00:25:53.196Z,7.44
2019-02-27T00:28:17.611Z,7.17
2019-02-27T00:30:42.199Z,7.52
2019-02-27T00:33:06.625Z,7.33
2019-02-27T00:35:31.059Z,7.50
2019-02-27T00:37:55.473Z,7.49
2019-02-27T00:40:19.926Z,7.51
2019-02-27T00:42:44.335Z,7.42
2019-02-27T00:45:10.624Z,7.50
2019-02-27T00:47:35.046Z,7.25
2019-02-27T00:49:59.488Z,7.23
2019-02-27T00:52:23.984Z,7.24
2019-02-27T00:54:48.423Z,7.06
2019-02-27T00:57:12.851Z,6.91
2019-02-27T00:59:37.273Z,7.06
2019-02-27T01:02:01.764Z,7.07
2019-02-27T01:04:26.192Z,7.22
2019-02-27T01:06:50.669Z,7.30
2019-02-27T01:09:15.571Z,6.88
2019-02-27T01:11:39.983Z,6.85
2019-02-27T01:14:04.689Z,7.03
2019-02-27T01:16:29.163Z,6.74
2019-02-27T01:18:53.603Z,6.59
2019-02-27T01:21:19.956Z,6.67
2019-02-27T01:23:44.778Z,6.63
2019-02-27T01:26:09.710Z,6.51
2019-02-27T01:28:34.126Z,6.29
2019-02-27T01:30:58.574Z,6.28
2019-02-27T01:33:22.986Z,6.46
2019-02-27T01:35:51.372Z,6.35
2019-02-27T01:38:13.612Z,6.29
2019-02-27T01:40:38.040Z,6.08
2019-02-27T01:43:05.290Z,6.26
2019-02-27T01:45:28.649Z,6.15
2019-02-27T01:47:53.165Z,6.08
2019-02-27T01:50:31.764Z,6.00
2019-02-27T01:52:56.268Z,6.30
2019-02-27T01:55:22.427Z,5.80
2019-02-27T01:57:46.810Z,5.94
2019-02-27T02:00:11.388Z,5.67
2019-02-27T02:02:37.581Z,5.87
2019-02-27T02:05:02.075Z,5.76
2019-02-27T02:07:26.504Z,5.94
2019-02-27T02:09:52.188Z,6.05
2019-02-27T02:12:20.137Z,5.83
2019-02-27T02:14:54.308Z,5.38
2019-02-27T02:17:34.212Z,5.63
2019-02-27T02:20:19.508Z,5.48
2019-02-27T02:23:01.739Z,5.61
2019-02-27T02:25:38.126Z,5.43
2019-02-27T02:28:20.315Z,5.45
2019-02-27T02:31:13.157Z,5.18
2019-02-27T02:33:52.212Z,5.34
2019-02-27T02:36:31.771Z,5.37
2019-02-27T02:39:19.130Z,5.26
2019-02-27T02:42:04.409Z,5.19
2019-02-27T02:44:31.899Z,5.23
2019-02-27T02:46:59.405Z,5.27
2019-02-27T02:49:43.939Z,5.11
2019-02-27T02:52:17.265Z,5.20
2019-02-27T02:54:59.713Z,4.93
2019-02-27T02:57:45.011Z,4.98
2019-02-27T03:00:21.821Z,5.08
2019-02-27T03:03:00.802Z,5.14
2019-02-27T03:05:42.238Z,5.02
2019-02-27T03:08:24.399Z,5.13
2019-02-27T03:10:55.041Z,5.20
2019-02-27T03:13:24.324Z,4.68
2019-02-27T03:16:19.016Z,4.90
2019-02-27T03:18:52.249Z,4.94
2019-02-27T03:21:28.587Z,4.82
2019-02-27T03:23:57.496Z,4.70
2019-02-27T03:26:27.992Z,4.83
2019-02-27T03:28:55.504Z,4.90
2019-02-27T03:31:34.905Z,4.79
2019-02-27T03:34:35.687Z,4.73
2019-02-27T03:37:17.603Z,4.93
2019-02-27T03:40:03.100Z,3.48
2019-02-27T03:42:57.336Z,4.79
2019-02-27T03:45:47.530Z,4.65
2019-02-27T03:48:39.120Z,4.70
2019-02-27T03:51:24.397Z,4.63
2019-02-27T03:54:20.588Z,4.58
2019-02-27T03:56:46.855Z,4.55
2019-02-27T03:59:30.610Z,4.41
2019-02-27T04:02:16.576Z,4.47
2019-02-27T04:04:55.801Z,4.27
2019-02-27T04:07:32.739Z,4.30
2019-02-27T04:09:57.260Z,4.40
2019-02-27T04:12:21.753Z,4.40
2019-02-27T04:14:46.162Z,4.46
2019-02-27T04:17:10.600Z,4.50
2019-02-27T04:19:38.722Z,4.10
2019-02-27T04:22:02.066Z,4.48
2019-02-27T04:24:26.512Z,4.52
2019-02-27T04:26:50.957Z,4.47
2019-02-27T04:29:15.368Z,4.62
2019-02-27T04:31:39.810Z,4.52
2019-02-27T04:34:04.306Z,4.31
2019-02-27T04:36:28.754Z,4.39
2019-02-27T04:38:53.175Z,4.54
2019-02-27T04:41:18.055Z,4.52
2019-02-27T04:43:43.201Z,4.55
2019-02-27T04:46:07.612Z,4.69
2019-02-27T04:48:32.136Z,4.72
2019-02-27T04:50:56.614Z,4.52
2019-02-27T04:53:21.037Z,4.51
2019-02-27T04:55:47.938Z,4.65
2019-02-27T04:58:11.601Z,4.68
2019-02-27T05:00:36.083Z,4.41
2019-02-27T05:03:00.518Z,4.50
2019-02-27T05:05:24.938Z,4.65
2019-02-27T05:07:49.352Z,4.66
2019-02-27T05:10:13.860Z,4.51
2019-02-27T05:12:38.330Z,4.69
2019-02-27T05:15:04.186Z,4.65
2019-02-27T05:17:28.882Z,4.61
2019-02-27T05:19:53.321Z,4.54
2019-02-27T05:22:17.743Z,4.35
2019-02-27T05:24:42.199Z,4.49
2019-02-27T05:27:06.695Z,4.58
2019-02-27T05:29:31.126Z,4.53
2019-02-27T05:31:55.544Z,4.39
2019-02-27T05:34:19.985Z,4.52
2019-02-27T05:36:44.395Z,4.58
2019-02-27T05:39:08.837Z,4.47
2019-02-27T05:41:33.793Z,4.46
2019-02-27T05:43:58.257Z,4.42
2019-02-27T05:46:22.712Z,4.52
2019-02-27T05:48:47.139Z,4.58
2019-02-27T05:51:11.579Z,4.42
2019-02-27T05:53:36.166Z,4.51
2019-02-27T05:56:00.601Z,4.48
2019-02-27T05:58:25.025Z,4.26
2019-02-27T06:00:49.514Z,4.44
2019-02-27T06:03:15.955Z,4.41
2019-02-27T06:05:40.067Z,4.47
2019-02-27T06:08:04.556Z,4.41
2019-02-27T06:10:28.997Z,4.36
2019-02-27T06:12:53.414Z,4.47
2019-02-27T06:15:18.804Z,4.49
2019-02-27T06:17:43.749Z,4.38
2019-02-27T06:20:09.426Z,4.45
2019-02-27T06:22:33.847Z,4.29
2019-02-27T06:24:58.285Z,4.38
2019-02-27T06:27:22.714Z,4.21
2019-02-27T06:29:47.173Z,4.37
2019-02-27T06:32:12.343Z,4.29
2019-02-27T06:34:37.495Z,4.31
2019-02-27T06:37:01.963Z,4.39
2019-02-27T06:39:26.666Z,4.55
2019-02-27T06:41:51.103Z,4.45
2019-02-27T06:44:15.634Z,4.56
2019-02-27T06:46:40.078Z,4.60
2019-02-27T06:49:04.566Z,4.56
2019-02-27T06:51:29.052Z,4.65
2019-02-27T06:53:53.483Z,4.81
2019-02-27T06:56:17.940Z,4.69
2019-02-27T06:58:42.344Z,4.83
2019-02-27T07:01:09.371Z,4.68
2019-02-27T07:03:33.070Z,5.03
2019-02-27T07:05:57.597Z,4.99
2019-02-27T07:08:22.136Z,5.09
2019-02-27T07:10:46.579Z,5.04
2019-02-27T07:13:11.078Z,5.09
2019-02-27T07:15:35.493Z,5.03
2019-02-27T07:17:59.911Z,4.83
2019-02-27T07:20:25.358Z,5.18
2019-02-27T07:22:49.786Z,5.09
2019-02-27T07:25:18.441Z,5.20
2019-02-27T07:27:42.953Z,5.33
2019-02-27T07:30:13.156Z,5.15
2019-02-27T07:32:37.686Z,5.41
2019-02-27T07:35:02.105Z,5.11
2019-02-27T07:37:26.606Z,5.51
2019-02-27T07:39:51.021Z,5.53
2019-02-27T07:42:15.459Z,5.49
2019-02-27T07:44:39.874Z,5.39
2019-02-27T07:47:04.335Z,5.65
2019-02-27T07:49:30.935Z,5.97
2019-02-27T07:51:57.939Z,5.44
2019-02-27T07:54:20.991Z,5.74
2019-02-27T07:56:45.455Z,6.13
2019-02-27T07:59:09.863Z,5.82
2019-02-27T08:01:43.265Z,6.08
2019-02-27T08:04:00.408Z,6.03
2019-02-27T08:06:24.832Z,6.07
2019-02-27T08:08:49.281Z,6.18
2019-02-27T08:11:14.253Z,6.30
2019-02-27T08:13:38.825Z,6.39
2019-02-27T08:16:03.475Z,6.27
2019-02-27T08:18:30.565Z,6.69
2019-02-27T08:20:54.666Z,6.86
2019-02-27T08:23:19.683Z,6.99
2019-02-27T08:25:44.096Z,6.67
2019-02-27T08:28:08.615Z,6.79
2019-02-27T08:30:33.116Z,6.84
2019-02-27T08:32:57.636Z,7.00
2019-02-27T08:35:22.191Z,6.76
2019-02-27T08:37:46.723Z,6.92
2019-02-27T08:40:15.146Z,7.15
2019-02-27T08:42:40.547Z,7.14
2019-02-27T08:45:07.438Z,7.12
2019-02-27T08:47:33.625Z,7.06
2019-02-27T08:49:58.634Z,7.26
2019-02-27T08:52:23.094Z,7.45
2019-02-27T08:54:47.530Z,7.65
2019-02-27T08:57:12.018Z,7.67
2019-02-27T08:59:36.893Z,7.80
2019-02-27T09:02:02.742Z,7.70
2019-02-27T09:04:27.187Z,7.89
2019-02-27T09:06:51.615Z,8.17
2019-02-27T09:09:17.943Z,8.51
2019-02-27T09:11:42.294Z,8.55
2019-02-27T09:14:06.781Z,8.63
2019-02-27T09:16:31.230Z,8.82
2019-02-27T09:18:55.647Z,8.90
2019-02-27T09:21:20.097Z,9.05
2019-02-27T09:23:44.983Z,9.32
2019-02-27T09:26:09.758Z,9.55
2019-02-27T09:28:34.208Z,9.57
2019-02-27T09:31:03.344Z,9.70
2019-02-27T09:33:25.740Z,9.77
2019-02-27T09:35:50.270Z,9.86
2019-02-27T09:38:14.705Z,10.05
2019-02-27T09:40:39.694Z,9.84
2019-02-27T09:43:06.228Z,10.10
2019-02-27T09:45:35.367Z,10.24
2019-02-27T09:48:00.808Z,10.42
2019-02-27T09:50:31.024Z,10.83
2019-02-27T09:52:55.524Z,10.88
2019-02-27T09:55:20.840Z,11.32
2019-02-27T09:57:45.366Z,11.23
2019-02-27T10:00:30.650Z,11.27
2019-02-27T10:02:55.176Z,11.31
2019-02-27T10:05:19.680Z,11.81
2019-02-27T10:07:44.126Z,11.80
2019-02-27T10:10:10.440Z,11.79
2019-02-27T10:12:34.752Z,12.00
2019-02-27T10:14:59.218Z,12.14
2019-02-27T10:17:23.649Z,12.39
2019-02-27T10:19:48.072Z,12.69
2019-02-27T10:22:12.596Z,12.83
2019-02-27T10:24:37.620Z,12.84
2019-02-27T10:27:02.148Z,13.03
2019-02-27T10:29:26.584Z,13.36
2019-02-27T10:31:51.004Z,13.26
2019-02-27T10:34:17.615Z,13.66
2019-02-27T10:36:41.730Z,13.91
2019-02-27T10:39:07.099Z,13.97
2019-02-27T10:41:31.512Z,13.94
2019-02-27T10:43:56.589Z,14.03
2019-02-27T10:46:23.649Z,14.38
2019-02-27T10:48:48.027Z,14.73
2019-02-27T10:51:12.447Z,15.20
2019-02-27T10:53:36.897Z,14.70
2019-02-27T10:56:01.360Z,15.24
2019-02-27T10:58:25.886Z,15.14
2019-02-27T11:00:50.383Z,15.73
2019-02-27T11:03:14.915Z,15.57
2019-02-27T11:05:40.083Z,15.87
2019-02-27T11:08:04.647Z,15.94
2019-02-27T11:10:29.253Z,16.18
2019-02-27T11:12:53.824Z,16.39
2019-02-27T11:15:23.051Z,16.61
2019-02-27T11:17:47.488Z,16.63
2019-02-27T11:20:12.988Z,17.00
2019-02-27T11:22:37.485Z,16.55
2019-02-27T11:25:02.066Z,16.69
2019-02-27T11:27:26.491Z,17.04
2019-02-27T11:29:51.009Z,17.62
2019-02-27T11:32:15.445Z,17.89
2019-02-27T11:34:39.974Z,17.84
2019-02-27T11:37:04.451Z,17.83
2019-02-27T11:39:30.514Z,17.66
2019-02-27T11:41:55.080Z,17.97
2019-02-27T11:44:19.595Z,18.54
2019-02-27T11:46:44.081Z,19.15
2019-02-27T11:49:08.493Z,20.75
2019-02-27T11:51:32.955Z,23.29
2019-02-27T11:53:57.377Z,24.88
2019-02-27T11:56:21.825Z,26.42
2019-02-27T11:58:46.261Z,27.10
2019-02-27T12:01:12.186Z,27.14
2019-02-27T12:03:36.806Z,26.35
2019-02-27T12:06:01.244Z,28.48
2019-02-27T12:08:26.771Z,27.54
2019-02-27T12:10:51.449Z,28.62
2019-02-27T12:13:15.875Z,28.98
2019-02-27T12:15:43.352Z,29.18
2019-02-27T12:18:06.493Z,28.49
2019-02-27T12:20:31.124Z,29.22
2019-02-27T12:22:55.528Z,30.02
2019-02-27T12:25:21.518Z,29.76
2019-02-27T12:27:49.794Z,28.84
2019-02-27T12:30:25.767Z,30.91
2019-02-27T12:32:50.410Z,32.00
2019-02-27T12:35:20.495Z,29.01
2019-02-27T12:37:44.967Z,30.55
2019-02-27T12:40:12.696Z,30.62
2019-02-27T12:42:37.686Z,33.84
2019-02-27T12:45:03.373Z,33.58
2019-02-27T12:47:27.787Z,32.10
2019-02-27T12:49:54.187Z,31.69
2019-02-27T12:52:18.412Z,34.05
2019-02-27T12:54:42.844Z,34.79
2019-02-27T12:57:07.367Z,32.95
2019-02-27T12:59:33.019Z,32.77
2019-02-27T13:01:58.259Z,33.46
2019-02-27T13:04:22.867Z,33.93
2019-02-27T13:06:47.782Z,35.39
2019-02-27T13:09:12.645Z,34.85
2019-02-27T13:11:39.046Z,32.66
2019-02-27T13:14:03.256Z,34.24
2019-02-27T13:16:27.724Z,35.59
2019-02-27T13:18:55.142Z,33.49
2019-02-27T13:21:21.307Z,35.14
2019-02-27T13:23:45.775Z,31.22
2019-02-27T13:26:10.251Z,31.57
2019-02-27T13:28:34.973Z,31.67
2019-02-27T13:30:59.386Z,34.63
2019-02-27T13:33:23.811Z,33.62
2019-02-27T13:35:48.384Z,35.48
2019-02-27T13:38:17.730Z,34.25
2019-02-27T13:40:39.610Z,33.75
2019-02-27T13:43:04.477Z,31.87
2019-02-27T13:45:30.735Z,32.26
2019-02-27T13:47:55.692Z,35.83
2019-02-27T13:50:23.440Z,33.28
2019-02-27T13:52:49.900Z,35.77
2019-02-27T13:55:16.486Z,33.67
2019-02-27T13:57:41.222Z,36.11
2019-02-27T14:00:20.381Z,35.61
2019-02-27T14:02:41.000Z,37.03
2019-02-27T14:05:08.282Z,37.60
2019-02-27T14:07:33.082Z,37.34
2019-02-27T14:09:57.987Z,37.25
2019-02-27T14:12:22.747Z,39.74
2019-02-27T14:14:52.139Z,38.30
2019-02-27T14:17:14.108Z,35.00
2019-02-27T14:19:38.567Z,35.82
2019-02-27T14:22:07.322Z,36.31
2019-02-27T14:24:29.151Z,34.40
2019-02-27T14:26:53.560Z,37.88
2019-02-27T14:29:18.103Z,37.88
2019-02-27T14:31:43.435Z,35.45
2019-02-27T14:34:08.524Z,35.93
2019-02-27T14:36:32.985Z,37.71
2019-02-27T14:38:57.440Z,39.51
2019-02-27T14:41:21.853Z,37.65
2019-02-27T14:43:46.293Z,36.22
2019-02-27T14:46:11.494Z,37.07
2019-02-27T14:48:36.692Z,37.85
2019-02-27T14:51:01.189Z,35.09
2019-02-27T14:53:25.665Z,36.62
2019-02-27T14:55:50.175Z,35.94
2019-02-27T14:58:15.241Z,37.08
2019-02-27T15:00:40.979Z,36.25
2019-02-27T15:03:05.714Z,36.40
2019-02-27T15:05:30.379Z,38.53
2019-02-27T15:07:55.005Z,39.29
2019-02-27T15:10:21.768Z,38.66
2019-02-27T15:12:46.298Z,39.15
2019-02-27T15:15:19.755Z,39.41
2019-02-27T15:17:44.151Z,35.45
2019-02-27T15:20:11.970Z,36.63
2019-02-27T15:22:36.526Z,36.05
2019-02-27T15:25:01.053Z,35.74
2019-02-27T15:27:25.709Z,37.57
2019-02-27T15:29:50.321Z,36.52
2019-02-27T15:32:14.737Z,37.30
2019-02-27T15:34:39.168Z,33.66
2019-02-27T15:37:04.236Z,35.35
2019-02-27T15:39:29.469Z,36.03
2019-02-27T15:41:53.931Z,35.60
2019-02-27T15:44:18.348Z,35.77
2019-02-27T15:46:42.871Z,35.38
2019-02-27T15:49:07.288Z,32.08
2019-02-27T15:51:32.482Z,30.52
2019-02-27T15:53:57.624Z,28.83
2019-02-27T15:56:22.095Z,27.79
2019-02-27T15:58:46.586Z,27.77
2019-02-27T16:01:11.080Z,25.78
2019-02-27T16:03:35.527Z,24.73
2019-02-27T16:06:05.184Z,24.81
2019-02-27T16:08:26.219Z,25.05
2019-02-27T16:10:54.844Z,24.46
2019-02-27T16:13:16.781Z,24.76
2019-02-27T16:15:41.213Z,24.10
2019-02-27T16:18:05.681Z,24.60
2019-02-27T16:20:30.589Z,24.12
2019-02-27T16:22:55.115Z,24.12
2019-02-27T16:25:21.470Z,24.03
2019-02-27T16:27:46.268Z,23.83
2019-02-27T16:30:13.753Z,23.66
2019-02-27T16:32:38.210Z,23.03
2019-02-27T16:35:04.372Z,23.01
2019-02-27T16:37:28.841Z,23.08
2019-02-27T16:39:55.190Z,22.91
2019-02-27T16:42:19.418Z,22.85
2019-02-27T16:44:43.867Z,22.51
2019-02-27T16:47:08.293Z,22.27
2019-02-27T16:49:32.745Z,22.41
2019-02-27T16:51:57.169Z,22.05
2019-02-27T16:54:24.038Z,21.86
2019-02-27T16:56:50.062Z,21.80
2019-02-27T16:59:14.070Z,21.27
2019-02-27T17:01:38.578Z,21.55
2019-02-27T17:04:03.101Z,21.51
2019-02-27T17:06:27.666Z,21.39
2019-02-27T17:08:52.146Z,21.18
2019-02-27T17:11:16.637Z,21.19
2019-02-27T17:13:41.074Z,21.20
2019-02-27T17:16:07.095Z,20.98
2019-02-27T17:18:31.715Z,20.97
2019-02-27T17:20:56.127Z,20.71
2019-02-27T17:23:20.587Z,20.68
2019-02-27T17:25:45.060Z,20.54
2019-02-27T17:28:11.638Z,20.32
2019-02-27T17:30:38.030Z,20.30
2019-02-27T17:33:04.276Z,20.29
2019-02-27T17:35:28.987Z,19.77
2019-02-27T17:37:53.492Z,19.83
2019-02-27T17:40:18.946Z,19.53
2019-02-27T17:42:43.761Z,19.66
2019-02-27T17:45:13.074Z,19.57
2019-02-27T17:47:37.716Z,19.45
2019-02-27T17:50:02.144Z,19.16
2019-02-27T17:52:26.584Z,19.35
2019-02-27T17:54:51.129Z,19.26
2019-02-27T17:57:15.538Z,18.83
2019-02-27T17:59:42.302Z,18.85
2019-02-27T18:02:07.806Z,18.90
2019-02-27T18:04:32.299Z,18.91
2019-02-27T18:06:59.821Z,18.84
2019-02-27T18:09:23.445Z,18.61
2019-02-27T18:11:52.405Z,18.54
2019-02-27T18:14:17.784Z,18.56
2019-02-27T18:16:42.171Z,18.39
2019-02-27T18:19:06.630Z,18.44
2019-02-27T18:21:33.806Z,18.17
2019-02-27T18:23:58.890Z,18.49
2019-02-27T18:26:25.168Z,18.19
2019-02-27T18:28:49.597Z,18.31
2019-02-27T18:31:14.117Z,17.86
2019-02-27T18:33:38.632Z,17.64
2019-02-27T18:36:04.865Z,17.96
2019-02-27T18:38:29.250Z,17.82
2019-02-27T18:40:53.795Z,17.60
2019-02-27T18:43:27.222Z,17.38
2019-02-27T18:45:54.528Z,17.40
2019-02-27T18:48:20.586Z,17.38
2019-02-27T18:50:48.979Z,17.25
2019-02-27T18:53:17.639Z,17.46
2019-02-27T18:55:47.892Z,17.32
2019-02-27T18:58:13.832Z,16.94
2019-02-27T19:00:42.940Z,17.08
2019-02-27T19:03:10.396Z,17.17
2019-02-27T19:05:41.759Z,16.92
2019-02-27T19:08:16.698Z,16.66
2019-02-27T19:10:50.842Z,16.76
2019-02-27T19:13:26.003Z,16.90
2019-02-27T19:15:53.448Z,16.67
2019-02-27T19:18:20.573Z,16.83
2019-02-27T19:20:47.636Z,16.66
2019-02-27T19:23:17.154Z,16.49
2019-02-27T19:25:41.853Z,16.40
2019-02-27T19:28:13.166Z,16.20
2019-02-27T19:30:41.655Z,16.40
2019-02-27T19:33:17.453Z,16.37
2019-02-27T19:35:42.123Z,16.33
2019-02-27T19:38:12.575Z,16.16
2019-02-27T19:40:36.261Z,16.40
2019-02-27T19:43:06.513Z,16.14
2019-02-27T19:45:35.896Z,16.14
2019-02-27T19:47:57.422Z,16.03
2019-02-27T19:50:25.351Z,15.89
2019-02-27T19:52:54.029Z,15.97
2019-02-27T19:55:18.655Z,15.80
2019-02-27T19:57:47.273Z,15.60
2019-02-27T20:00:23.084Z,15.23
2019-02-27T20:02:55.251Z,15.41
2019-02-27T20:05:16.457Z,15.35
2019-02-27T20:07:43.310Z,15.24
2019-02-27T20:10:12.779Z,15.44
2019-02-27T20:12:39.009Z,15.36
2019-02-27T20:15:11.774Z,15.29
2019-02-27T20:17:36.485Z,15.04
2019-02-27T20:20:04.104Z,14.66
2019-02-27T20:22:27.863Z,14.66
2019-02-27T20:24:56.594Z,14.64
2019-02-27T20:27:32.973Z,14.77
2019-02-27T20:30:14.081Z,14.85
2019-02-27T20:32:30.214Z,14.71
2019-02-27T20:34:54.802Z,14.83
2019-02-27T20:37:21.022Z,14.62
2019-02-27T20:39:49.476Z,14.62
2019-02-27T20:42:24.675Z,14.36
2019-02-27T20:44:49.838Z,14.24
2019-02-27T20:47:21.887Z,14.44
2019-02-27T20:49:49.710Z,14.41
2019-02-27T20:52:14.903Z,14.20
2019-02-27T20:54:41.275Z,14.03
2019-02-27T20:57:08.086Z,13.82
2019-02-27T20:59:33.881Z,14.17
2019-02-27T21:02:03.586Z,14.30
2019-02-27T21:04:32.288Z,14.27
2019-02-27T21:07:00.907Z,14.19
2019-02-27T21:09:25.163Z,14.20
2019-02-27T21:11:49.555Z,14.30
2019-02-27T21:14:14.049Z,14.40
2019-02-27T21:16:40.169Z,14.21
2019-02-27T21:19:16.834Z,14.23
2019-02-27T21:21:41.309Z,13.97
2019-02-27T21:24:06.491Z,13.74
2019-02-27T21:26:32.645Z,13.77
2019-02-27T21:28:58.999Z,13.62
2019-02-27T21:31:27.586Z,13.83
2019-02-27T21:33:51.430Z,13.67
2019-02-27T21:36:16.093Z,13.60
2019-02-27T21:38:40.571Z,13.60
2019-02-27T21:41:05.163Z,13.11
2019-02-27T21:43:32.082Z,13.34
2019-02-27T21:45:56.668Z,12.85
2019-02-27T21:48:23.397Z,12.99
2019-02-27T21:50:47.378Z,12.87
2019-02-27T21:53:11.791Z,12.69
2019-02-27T21:55:36.316Z,12.46
2019-02-27T21:58:00.703Z,12.60
2019-02-27T22:00:28.019Z,13.02
2019-02-27T22:02:56.637Z,12.64
2019-02-27T22:05:21.128Z,12.62
2019-02-27T22:07:45.712Z,12.82
2019-02-27T22:10:19.455Z,12.82
2019-02-27T22:12:43.905Z,12.93
2019-02-27T22:15:13.055Z,12.96
2019-02-27T22:17:37.770Z,12.82
2019-02-27T22:20:02.183Z,12.81
2019-02-27T22:22:26.620Z,12.93
2019-02-27T22:24:52.226Z,12.80
2019-02-27T22:27:17.300Z,12.65
2019-02-27T22:29:42.692Z,12.62
2019-02-27T22:32:07.185Z,12.50
2019-02-27T22:34:31.656Z,12.56
2019-02-27T22:36:56.066Z,12.53
2019-02-27T22:39:22.107Z,12.28
2019-02-27T22:41:46.496Z,12.02
2019-02-27T22:44:10.929Z,11.49
2019-02-27T22:46:35.369Z,11.82
2019-02-27T22:49:01.013Z,11.86
2019-02-27T22:51:25.599Z,11.38
2019-02-27T22:53:50.036Z,11.45
2019-02-27T22:56:16.839Z,11.72
2019-02-27T22:58:40.600Z,11.46
2019-02-27T23:01:10.215Z,11.59
2019-02-27T23:03:40.566Z,11.72
2019-02-27T23:06:05.899Z,11.73
2019-02-27T23:08:30.395Z,11.64
2019-02-27T23:10:55.744Z,11.78
2019-02-27T23:13:20.344Z,11.43
2019-02-27T23:15:44.946Z,11.46
2019-02-27T23:18:09.522Z,11.37
2019-02-27T23:20:34.218Z,11.59
2019-02-27T23:23:02.424Z,11.41
2019-02-27T23:25:25.307Z,11.28
2019-02-27T23:27:49.789Z,11.41
2019-02-27T23:30:15.799Z,11.03
2019-02-27T23:32:41.094Z,11.17
2019-02-27T23:35:06.579Z,11.27
2019-02-27T23:37:31.381Z,11.35
2019-02-27T23:39:56.129Z,10.96
2019-02-27T23:42:20.857Z,11.13
2019-02-27T23:44:45.711Z,10.98
2019-02-27T23:47:10.629Z,10.62
2019-02-27T23:49:39.556Z,10.88
2019-02-27T23:52:01.699Z,10.83
2019-02-27T23:54:26.367Z,11.16
2019-02-27T23:56:51.821Z,10.89
2019-02-27T23:59:17.719Z,11.03
